PWSweather.com
Personal Weather Stations
Station Observations
KCOFORTC421
Hanna Farm, Fort Collins, CO

Hanna FarmFort Collins, CO

Lat: 40.5937822, Lon: -105.099333

Elevation: 5038

Station Type: Ambient Weather WS-2000

https://www.wunderground.com/dashboard/pws/KCOFORTC421

Latest ConditionsUpdated 12:21:00 AM MST Saturday, Jan 18, 2020
Currently Today's Max Today's Min Today's Average
Temperature 32.0°F0.0°C 32.5°F0.3°C 31.8°F-0.1°C 32.1°F0.1°C
Dew Point 4.1°F-15.5°C 5.7°F-14.6°C 3.9°F-15.6°C 4.6°F-15.2°C
Winds 4.7 mph W7.6 kmh W 7.8 mph -12.6 kmh - - 4.4 mph 7.1 kmh
Wind Gusts 5.8 mph9.3 kmh 14.8 mph23.8 kmh - -
Humidity 30% 32% 30% 31%
Pressure 30.11 in1019.6 mb 30.11 in1019.6 mb 30.10 in1019.3 mb -
Hour Temp Dew Point Humidity Winds Wind Gusts Pressure Precip Precip Rate Daily Precip Total
12:21 AM 32.0°F0.0°C 4.1°F-15.5°C 30% 4.7 mph W7.6 kmh W 5.8 mph9.3 kmh 30.11 in1019.6 mb 0.00 in0.0 mm 0.00 in0.0 mm 0.00 in0.0 mm
12:20 AM 32.0°F0.0°C 4.1°F-15.5°C 30% 3.4 mph NW5.5 kmh NW 4.5 mph7.2 kmh 30.11 in1019.6 mb 0.00 in0.0 mm 0.00 in0.0 mm 0.00 in0.0 mm
12:19 AM 31.8°F-0.1°C 3.9°F-15.6°C 30% 4.5 mph NW7.2 kmh NW 4.5 mph7.2 kmh 30.11 in1019.6 mb 0.00 in0.0 mm 0.00 in0.0 mm 0.00 in0.0 mm
12:18 AM 31.8°F-0.1°C 3.9°F-15.6°C 30% 7.8 mph NW12.6 kmh NW 9.2 mph14.8 kmh 30.10 in1019.3 mb 0.00 in0.0 mm 0.00 in0.0 mm 0.00 in0.0 mm
12:17 AM 32.0°F0.0°C 5.5°F-14.7°C 32% 4.3 mph NW6.9 kmh NW 5.8 mph9.3 kmh 30.11 in1019.6 mb 0.00 in0.0 mm 0.00 in0.0 mm 0.00 in0.0 mm
12:16 AM 32.2°F0.1°C 5.0°F-15.0°C 31% 2.2 mph WNW3.5 kmh WNW 2.2 mph3.5 kmh 30.10 in1019.3 mb 0.00 in0.0 mm 0.00 in0.0 mm 0.00 in0.0 mm
12:15 AM 32.2°F0.1°C 4.3°F-15.4°C 30% 5.4 mph NW8.7 kmh NW 6.9 mph11.1 kmh 30.11 in1019.6 mb 0.00 in0.0 mm 0.00 in0.0 mm 0.00 in0.0 mm
12:14 AM 32.0°F0.0°C 4.1°F-15.5°C 30% 3.6 mph NW5.8 kmh NW 4.5 mph7.2 kmh 30.11 in1019.6 mb 0.00 in0.0 mm 0.00 in0.0 mm 0.00 in0.0 mm
12:13 AM 32.0°F0.0°C 4.1°F-15.5°C 30% 5.4 mph NNW8.7 kmh NNW 6.9 mph11.1 kmh 30.11 in1019.6 mb 0.00 in0.0 mm 0.00 in0.0 mm 0.00 in0.0 mm
12:12 AM 32.0°F0.0°C 4.8°F-15.1°C 31% 4.0 mph WNW6.4 kmh WNW 5.8 mph9.3 kmh 30.11 in1019.6 mb 0.00 in0.0 mm 0.00 in0.0 mm 0.00 in0.0 mm
12:11 AM 32.0°F0.0°C 4.1°F-15.5°C 30% 4.7 mph NW7.6 kmh NW 5.8 mph9.3 kmh 30.11 in1019.6 mb 0.00 in0.0 mm 0.00 in0.0 mm 0.00 in0.0 mm
12:10 AM 32.0°F0.0°C 4.8°F-15.1°C 31% 3.1 mph WNW5.0 kmh WNW 4.5 mph7.2 kmh 30.11 in1019.6 mb 0.00 in0.0 mm 0.00 in0.0 mm 0.00 in0.0 mm
12:09 AM 32.0°F0.0°C 4.8°F-15.1°C 31% 3.4 mph W5.5 kmh W 4.5 mph7.2 kmh 30.10 in1019.3 mb 0.00 in0.0 mm 0.00 in0.0 mm 0.00 in0.0 mm
12:08 AM 32.2°F0.1°C 5.0°F-15.0°C 31% 2.5 mph W4.0 kmh W 4.5 mph7.2 kmh 30.11 in1019.6 mb 0.00 in0.0 mm 0.00 in0.0 mm 0.00 in0.0 mm
12:07 AM 32.2°F0.1°C 5.0°F-15.0°C 31% 3.8 mph NW6.1 kmh NW 4.5 mph7.2 kmh 30.11 in1019.6 mb 0.00 in0.0 mm 0.00 in0.0 mm 0.00 in0.0 mm
12:06 AM 32.4°F0.2°C 5.2°F-14.9°C 31% 2.9 mph NW4.7 kmh NW 3.4 mph5.5 kmh 30.11 in1019.6 mb 0.00 in0.0 mm 0.00 in0.0 mm 0.00 in0.0 mm
12:05 AM 32.5°F0.3°C 4.6°F-15.2°C 30% 3.4 mph W5.5 kmh W 3.4 mph5.5 kmh 30.10 in1019.3 mb 0.00 in0.0 mm 0.00 in0.0 mm 0.00 in0.0 mm
12:04 AM 32.5°F0.3°C 4.6°F-15.2°C 30% 4.5 mph W7.2 kmh W 5.8 mph9.3 kmh 30.11 in1019.6 mb 0.00 in0.0 mm 0.00 in0.0 mm 0.00 in0.0 mm
12:03 AM 32.4°F0.2°C 4.5°F-15.3°C 30% 6.0 mph WNW9.7 kmh WNW 6.9 mph11.1 kmh 30.11 in1019.6 mb 0.00 in0.0 mm 0.00 in0.0 mm 0.00 in0.0 mm
12:02 AM 32.2°F0.1°C 5.0°F-15.0°C 31% 7.4 mph W11.9 kmh W 13.6 mph21.9 kmh 30.11 in1019.6 mb 0.00 in0.0 mm 0.00 in0.0 mm 0.00 in0.0 mm
12:01 AM 32.2°F0.1°C 5.0°F-15.0°C 31% 7.6 mph SW12.2 kmh SW 14.8 mph23.8 kmh 30.11 in1019.6 mb 0.00 in0.0 mm 0.00 in0.0 mm 0.00 in0.0 mm
12:00 AM 32.2°F0.1°C 5.7°F-14.6°C 32% 2.2 mph W3.5 kmh W 4.5 mph7.2 kmh 30.11 in1019.6 mb 0.00 in0.0 mm 0.00 in0.0 mm 0.00 in0.0 mm